Time;durP1;ratioP1;P1;durP2;ratioP2;P2;SDS_P1;SDS_P2;PMS_P1;PMS_P2;Temp;Humidity;BMP_temperature;BMP_pressure;BME280_temperature;BME280_humidity;BME280_pressure;Samples;Min_cycle;Max_cycle;Signal;HPM_P1;HPM_P2
2021/03/03 00:00:39;;;;;;;26.77;13.30;;;-0.20;99.90;;;;;;8357660;28;20029;-69
2021/03/03 00:04:40;;;;;;;28.92;12.73;;;0.00;99.90;;;;;;8358538;28;20480;-69
2021/03/03 00:08:40;;;;;;;25.88;12.75;;;-0.20;99.90;;;;;;8358882;28;20101;-70
2021/03/03 00:12:41;;;;;;;27.75;13.95;;;-0.10;99.90;;;;;;8358724;28;20051;-70
2021/03/03 00:16:42;;;;;;;25.40;13.02;;;-0.20;99.90;;;;;;8359069;28;20071;-69
2021/03/03 00:20:42;;;;;;;24.20;12.45;;;0.00;99.90;;;;;;8361808;28;20583;-69
2021/03/03 00:24:43;;;;;;;27.52;13.40;;;0.00;99.90;;;;;;8345815;28;20071;-70
2021/03/03 00:28:46;;;;;;;27.40;13.63;;;-0.10;99.90;;;;;;8362978;28;20106;-69
2021/03/03 00:32:47;;;;;;;27.30;13.50;;;0.00;99.90;;;;;;8364089;28;20023;-69
2021/03/03 00:36:48;;;;;;;30.13;14.55;;;-0.10;99.90;;;;;;8364591;28;20031;-69
2021/03/03 00:40:48;;;;;;;25.70;12.98;;;-0.20;99.90;;;;;;8346264;28;20025;-69
2021/03/03 00:44:49;;;;;;;24.75;13.27;;;0.00;99.90;;;;;;8364379;28;20487;-69
2021/03/03 00:48:49;;;;;;;24.58;13.38;;;0.10;99.90;;;;;;8364083;28;20018;-69
2021/03/03 00:52:50;;;;;;;25.08;12.75;;;0.00;99.90;;;;;;8346090;28;20029;-70
2021/03/03 00:56:50;;;;;;;23.63;12.65;;;0.00;99.90;;;;;;8363409;28;20032;-69
2021/03/03 01:00:51;;;;;;;23.25;12.02;;;0.10;99.90;;;;;;8344791;28;20492;-69
2021/03/03 01:04:51;;;;;;;25.98;13.00;;;-0.10;99.90;;;;;;8362988;28;20032;-69
2021/03/03 01:08:52;;;;;;;24.08;12.57;;;0.00;99.90;;;;;;8363054;28;20036;-70
2021/03/03 01:12:52;;;;;;;25.10;13.13;;;0.00;99.90;;;;;;8363417;28;20075;-69
2021/03/03 01:16:54;;;;;;;27.30;13.55;;;-0.20;99.90;;;;;;8363287;28;20028;-70
2021/03/03 01:20:54;;;;;;;27.15;12.63;;;-0.20;99.90;;;;;;8345152;28;20025;-69
2021/03/03 01:24:55;;;;;;;27.63;13.52;;;-0.20;99.90;;;;;;8362890;28;20561;-69
2021/03/03 01:28:55;;;;;;;26.80;13.23;;;-0.20;99.90;;;;;;8361222;28;20100;-69
2021/03/03 01:32:56;;;;;;;29.50;14.13;;;-0.20;99.90;;;;;;8361660;28;20037;-69
2021/03/03 01:36:56;;;;;;;29.58;13.65;;;-0.50;99.90;;;;;;8362649;28;20087;-69
2021/03/03 01:40:57;;;;;;;24.17;12.73;;;-0.50;99.90;;;;;;8362195;28;20033;-68
2021/03/03 01:44:57;;;;;;;24.35;13.00;;;-0.20;99.90;;;;;;8362575;28;20025;-69
2021/03/03 01:48:58;;;;;;;24.98;12.88;;;-0.30;99.90;;;;;;8344130;28;20031;-69
2021/03/03 01:52:59;;;;;;;28.77;13.43;;;-0.50;99.90;;;;;;8344115;28;20115;-70
2021/03/03 01:57:02;;;;;;;28.13;13.23;;;-0.60;99.90;;;;;;8343812;28;20025;-69
2021/03/03 02:01:03;;;;;;;28.45;14.02;;;-0.50;99.90;;;;;;8360413;28;20443;-70
2021/03/03 02:05:05;;;;;;;27.20;13.50;;;-0.20;99.90;;;;;;8343496;28;20028;-70
2021/03/03 02:09:18;;;;;;;25.10;12.63;;;-0.40;99.90;;;;;;8343442;28;20067;-69
2021/03/03 02:13:32;;;;;;;29.17;13.35;;;-0.60;99.90;;;;;;8361551;28;20057;-70
2021/03/03 02:17:34;;;;;;;28.02;13.48;;;-0.80;99.90;;;;;;8361339;28;20028;-69
2021/03/03 02:21:39;;;;;;;30.95;14.20;;;-0.50;99.90;;;;;;8360839;28;20039;-70
2021/03/03 02:25:40;;;;;;;28.83;14.45;;;-0.60;99.90;;;;;;8361503;28;20060;-70
2021/03/03 02:29:41;;;;;;;30.75;14.18;;;-0.50;99.90;;;;;;8359655;28;20028;-69
2021/03/03 02:33:44;;;;;;;35.88;15.30;;;-0.50;99.90;;;;;;8342381;28;20028;-68
2021/03/03 02:37:45;;;;;;;30.70;15.23;;;-0.50;99.90;;;;;;8342820;28;20021;-67
2021/03/03 02:41:47;;;;;;;28.10;14.18;;;-0.50;99.90;;;;;;8341502;28;20029;-67
2021/03/03 02:45:48;;;;;;;26.15;13.60;;;-0.30;99.90;;;;;;8360623;28;20499;-68
2021/03/03 02:49:50;;;;;;;28.85;14.38;;;-0.20;99.90;;;;;;8342366;28;20033;-67
2021/03/03 02:53:50;;;;;;;27.83;13.15;;;-0.20;99.90;;;;;;8342228;28;20552;-67
2021/03/03 02:57:55;;;;;;;27.70;13.80;;;-0.20;99.90;;;;;;8359370;28;20029;-67
2021/03/03 03:01:58;;;;;;;26.90;13.70;;;-0.10;99.90;;;;;;8357442;28;20029;-67
2021/03/03 03:06:04;;;;;;;28.73;14.23;;;-0.10;99.90;;;;;;8360060;28;20483;-67
2021/03/03 03:10:09;;;;;;;25.65;13.30;;;-0.20;99.90;;;;;;8341864;28;20021;-67
2021/03/03 03:14:13;;;;;;;22.25;12.00;;;-0.20;99.90;;;;;;8325957;28;20033;-67
2021/03/03 03:18:18;;;;;;;26.70;12.48;;;-0.20;99.90;;;;;;8359787;28;20017;-67
2021/03/03 03:22:23;;;;;;;22.58;11.13;;;-0.30;99.90;;;;;;8359420;28;20029;-68
2021/03/03 03:26:27;;;;;;;22.70;11.77;;;-0.30;99.90;;;;;;8359357;28;20104;-67
2021/03/03 03:30:29;;;;;;;28.23;12.93;;;-0.40;99.90;;;;;;8358286;28;20017;-67
2021/03/03 03:34:30;;;;;;;23.98;12.63;;;-0.50;99.90;;;;;;8359348;28;20025;-67
2021/03/03 03:38:32;;;;;;;21.90;11.73;;;-0.60;99.90;;;;;;8359574;28;20025;-67
2021/03/03 03:42:34;;;;;;;19.98;10.90;;;-0.30;99.90;;;;;;8359176;28;20383;-67
2021/03/03 03:46:37;;;;;;;24.85;12.32;;;-0.30;99.90;;;;;;8359176;28;20071;-67
2021/03/03 03:50:37;;;;;;;21.25;11.75;;;-0.50;99.90;;;;;;8341209;28;20025;-68
2021/03/03 03:54:38;;;;;;;29.15;12.35;;;-0.70;99.90;;;;;;8397850;22;20576;-69
2021/03/03 03:58:39;;;;;;;22.95;12.15;;;-0.90;99.90;;;;;;8426855;28;20047;-70
2021/03/03 04:02:39;;;;;;;21.73;11.85;;;-1.00;99.90;;;;;;8429515;28;20065;-70
2021/03/03 04:06:40;;;;;;;24.63;12.68;;;-0.90;99.90;;;;;;8430330;28;20501;-70
2021/03/03 04:10:40;;;;;;;24.13;12.07;;;-0.80;99.90;;;;;;8430237;28;20028;-70
2021/03/03 04:14:41;;;;;;;19.27;10.60;;;-0.80;99.90;;;;;;8431486;28;20024;-69
2021/03/03 04:18:41;;;;;;;24.23;12.02;;;-0.80;99.90;;;;;;8429965;28;20492;-69
2021/03/03 04:22:42;;;;;;;23.15;11.65;;;-0.50;99.90;;;;;;8411992;28;20024;-70
2021/03/03 04:26:43;;;;;;;24.40;12.52;;;-0.50;99.90;;;;;;8395584;28;20024;-69
2021/03/03 04:30:43;;;;;;;21.65;11.27;;;-0.50;99.90;;;;;;8395283;28;20024;-70
2021/03/03 04:34:44;;;;;;;24.77;12.18;;;-0.40;99.90;;;;;;8397188;28;20031;-69
2021/03/03 04:38:44;;;;;;;23.30;12.57;;;-0.40;99.90;;;;;;8395970;28;20024;-70
2021/03/03 04:42:45;;;;;;;25.83;12.88;;;-0.50;99.90;;;;;;8393475;28;20024;-70
2021/03/03 04:46:46;;;;;;;23.30;12.30;;;-0.30;99.90;;;;;;8394621;28;20082;-69
2021/03/03 04:50:46;;;;;;;24.85;12.15;;;-0.30;99.90;;;;;;8393972;28;20608;-69
2021/03/03 04:54:47;;;;;;;26.73;13.25;;;-0.40;99.90;;;;;;8393092;28;20387;-70
2021/03/03 04:58:47;;;;;;;32.47;16.58;;;-0.20;99.90;;;;;;8395169;28;20064;-69
2021/03/03 05:02:48;;;;;;;36.42;17.00;;;-0.40;99.90;;;;;;8394771;28;20074;-70
2021/03/03 05:06:48;;;;;;;41.50;18.15;;;-0.60;99.90;;;;;;8387771;28;20017;-69
2021/03/03 05:10:49;;;;;;;44.95;17.45;;;-0.70;99.90;;;;;;8369711;28;20394;-70
2021/03/03 05:14:50;;;;;;;40.83;16.85;;;-0.50;99.90;;;;;;8390268;28;20167;-69
2021/03/03 05:18:50;;;;;;;36.13;16.85;;;-0.60;99.90;;;;;;8392079;28;20024;-70
2021/03/03 05:22:51;;;;;;;30.60;13.25;;;-0.60;99.90;;;;;;8378199;28;20025;-70
2021/03/03 05:26:52;;;;;;;33.53;14.35;;;-0.40;99.90;;;;;;8383504;28;20043;-69
2021/03/03 05:30:53;;;;;;;30.17;14.25;;;-0.50;99.90;;;;;;8371573;28;20063;-69
2021/03/03 05:34:53;;;;;;;29.27;13.95;;;-0.50;99.90;;;;;;8369123;28;20017;-69
2021/03/03 05:38:54;;;;;;;32.35;14.52;;;-0.70;99.90;;;;;;8386400;28;20043;-70
2021/03/03 05:42:55;;;;;;;26.13;13.30;;;-0.80;99.90;;;;;;8387748;28;20059;-70
2021/03/03 05:46:58;;;;;;;33.22;13.38;;;-0.90;99.90;;;;;;8366962;28;20399;-66
2021/03/03 05:51:01;;;;;;;25.45;13.27;;;-0.50;99.90;;;;;;8359019;28;20055;-68
2021/03/03 05:55:05;;;;;;;26.55;12.93;;;-0.40;99.90;;;;;;8381647;28;20058;-69
2021/03/03 05:59:10;;;;;;;33.67;15.70;;;-0.50;99.90;;;;;;8383194;28;20032;-69
2021/03/03 06:03:11;;;;;;;33.65;18.52;;;-0.50;99.90;;;;;;8392897;28;20020;-69
2021/03/03 06:07:12;;;;;;;41.58;21.23;;;-0.40;99.90;;;;;;8393378;28;20025;-69
2021/03/03 06:11:13;;;;;;;35.25;18.77;;;-0.30;99.90;;;;;;8393981;28;20127;-68
2021/03/03 06:15:15;;;;;;;35.67;16.75;;;-0.10;99.90;;;;;;8394093;28;20051;-68
2021/03/03 06:19:17;;;;;;;31.33;17.60;;;0.00;99.90;;;;;;8392516;28;20494;-69
2021/03/03 06:23:19;;;;;;;29.75;15.73;;;-0.20;99.90;;;;;;8394033;28;20021;-68
2021/03/03 06:27:22;;;;;;;32.42;16.63;;;0.00;99.90;;;;;;8391914;28;20024;-68
2021/03/03 06:31:34;;;;;;;31.45;14.38;;;0.20;99.90;;;;;;8383430;28;20065;-68
2021/03/03 06:35:38;;;;;;;29.52;14.10;;;0.40;99.90;;;;;;8386382;28;20024;-68
2021/03/03 06:39:38;;;;;;;25.30;13.38;;;0.40;99.90;;;;;;8385212;28;20111;-68
2021/03/03 06:43:39;;;;;;;25.17;13.70;;;0.40;99.90;;;;;;8377022;28;20494;-68
2021/03/03 06:47:48;;;;;;;24.42;12.45;;;0.30;99.90;;;;;;8390890;28;20029;-68
2021/03/03 06:51:50;;;;;;;21.20;12.50;;;0.50;99.90;;;;;;8389542;28;20035;-68
2021/03/03 06:55:51;;;;;;;25.77;13.93;;;0.70;99.90;;;;;;8389065;28;20033;-68
2021/03/03 06:59:51;;;;;;;25.42;13.10;;;0.50;99.90;;;;;;8389266;28;20510;-69
2021/03/03 07:03:52;;;;;;;24.48;13.88;;;0.50;99.90;;;;;;8382769;28;20028;-69
2021/03/03 07:08:02;;;;;;;24.90;13.63;;;0.80;99.90;;;;;;8387266;28;20063;-69
2021/03/03 07:12:06;;;;;;;29.17;14.20;;;1.10;99.90;;;;;;8400895;28;20395;-68
2021/03/03 07:16:08;;;;;;;28.80;15.10;;;1.40;99.90;;;;;;8388799;28;20437;-69
2021/03/03 07:20:14;;;;;;;26.90;14.98;;;1.50;99.90;;;;;;8386548;28;20020;-68
2021/03/03 07:24:15;;;;;;;26.55;15.18;;;1.50;99.90;;;;;;8377459;28;20031;-69
2021/03/03 07:28:15;;;;;;;28.00;15.88;;;1.70;99.90;;;;;;8379173;28;20017;-69
2021/03/03 07:32:17;;;;;;;27.88;15.45;;;1.70;99.90;;;;;;8390000;28;20723;-68
2021/03/03 07:36:19;;;;;;;31.88;15.32;;;1.90;99.90;;;;;;8372522;28;20043;-68
2021/03/03 07:40:25;;;;;;;26.60;14.38;;;2.20;99.90;;;;;;8384506;28;20017;-69
2021/03/03 07:44:27;;;;;;;21.35;11.63;;;2.30;99.90;;;;;;8392501;28;20024;-69
2021/03/03 07:48:29;;;;;;;19.38;11.38;;;2.40;99.90;;;;;;8402761;28;20020;-68
2021/03/03 07:52:32;;;;;;;27.10;12.25;;;2.40;99.90;;;;;;8394108;28;20073;-69
2021/03/03 07:56:33;;;;;;;26.30;13.18;;;2.60;99.90;;;;;;8390683;28;20029;-68
2021/03/03 08:00:37;;;;;;;22.45;12.23;;;3.00;99.90;;;;;;8376167;28;20112;-68
2021/03/03 08:04:41;;;;;;;24.08;10.98;;;3.30;99.90;;;;;;8385381;28;20028;-68
2021/03/03 08:08:42;;;;;;;18.90;10.38;;;3.30;99.90;;;;;;8393883;28;20032;-68
2021/03/03 08:13:06;;;;;;;29.63;15.23;;;3.30;99.90;;;;;;8400936;28;20037;-68
2021/03/03 08:17:08;;;;;;;27.85;14.10;;;3.80;99.90;;;;;;8401288;28;20387;-68
2021/03/03 08:21:09;;;;;;;29.80;14.48;;;4.10;99.90;;;;;;8390050;28;20031;-68
2021/03/03 08:25:10;;;;;;;22.42;14.00;;;4.30;99.90;;;;;;8391182;28;20047;-68
2021/03/03 08:29:14;;;;;;;22.17;13.55;;;4.40;99.90;;;;;;8389007;28;20119;-68
2021/03/03 08:33:29;;;;;;;24.38;13.60;;;4.70;99.90;;;;;;8401369;28;20086;-68
2021/03/03 08:37:32;;;;;;;23.73;13.65;;;5.00;99.90;;;;;;8400518;28;20028;-68
2021/03/03 08:41:34;;;;;;;24.40;14.57;;;5.10;99.90;;;;;;8399338;28;20371;-68
2021/03/03 08:45:34;;;;;;;23.73;12.70;;;5.30;99.90;;;;;;8372566;28;20048;-68
2021/03/03 08:49:35;;;;;;;23.85;13.48;;;5.50;99.90;;;;;;8384448;28;20597;-68
2021/03/03 08:53:35;;;;;;;26.95;14.80;;;5.60;99.90;;;;;;8365060;28;20406;-68
2021/03/03 08:57:37;;;;;;;31.40;15.63;;;6.00;99.90;;;;;;8409873;28;20133;-68
2021/03/03 09:01:56;;;;;;;38.33;19.83;;;6.20;99.90;;;;;;8403964;28;20082;-68
2021/03/03 09:05:57;;;;;;;34.20;17.52;;;6.50;99.90;;;;;;8384683;28;20054;-68
2021/03/03 09:10:14;;;;;;;31.83;17.13;;;6.80;99.90;;;;;;8393988;28;20103;-68
2021/03/03 09:14:19;;;;;;;28.58;15.70;;;6.90;99.90;;;;;;8393667;28;20024;-68
2021/03/03 09:18:20;;;;;;;27.52;17.67;;;7.10;99.90;;;;;;8393835;28;20028;-68
2021/03/03 09:22:22;;;;;;;35.10;18.35;;;7.40;99.90;;;;;;8392478;28;20120;-68
2021/03/03 09:26:23;;;;;;;29.75;17.30;;;7.60;99.90;;;;;;8392250;28;20509;-68
2021/03/03 09:30:26;;;;;;;24.75;14.50;;;7.70;99.90;;;;;;8389414;28;20037;-68
2021/03/03 09:34:27;;;;;;;24.52;14.27;;;7.80;99.90;;;;;;8393249;28;20527;-68
2021/03/03 09:38:31;;;;;;;26.20;15.38;;;7.90;99.90;;;;;;8386609;28;20024;-68
2021/03/03 09:42:51;;;;;;;24.60;15.18;;;8.10;99.90;;;;;;8366570;28;20033;-68
2021/03/03 09:46:56;;;;;;;26.38;15.88;;;8.40;99.90;;;;;;8383297;28;20499;-68
2021/03/03 09:50:58;;;;;;;26.48;15.15;;;8.50;99.90;;;;;;8389909;28;20417;-68
2021/03/03 09:54:58;;;;;;;22.02;12.40;;;8.70;99.90;;;;;;8377229;28;20059;-68
2021/03/03 09:58:59;;;;;;;23.27;11.98;;;9.00;99.90;;;;;;8380707;28;20115;-68
2021/03/03 10:03:01;;;;;;;29.50;14.85;;;9.30;99.90;;;;;;8391795;28;20058;-68
2021/03/03 10:07:07;;;;;;;28.55;15.02;;;9.30;99.90;;;;;;8422097;22;20048;-69
2021/03/03 10:11:07;;;;;;;29.83;14.75;;;9.50;99.90;;;;;;8379650;28;20025;-68
2021/03/03 10:15:32;;;;;;;24.73;12.48;;;9.80;99.90;;;;;;8382115;28;20028;-70
2021/03/03 10:19:41;;;;;;;24.38;11.90;;;10.10;99.90;;;;;;8365954;28;20043;-71
2021/03/03 10:23:42;;;;;;;25.05;13.35;;;10.60;99.90;;;;;;8377633;28;20021;-70
2021/03/03 10:27:42;;;;;;;22.25;11.48;;;10.80;99.90;;;;;;8379155;28;20070;-71
2021/03/03 10:31:43;;;;;;;22.27;12.32;;;11.10;99.90;;;;;;8364870;28;20028;-70
2021/03/03 10:35:51;;;;;;;24.52;12.52;;;11.00;99.90;;;;;;8370551;28;20029;-70
2021/03/03 10:39:52;;;;;;;23.02;13.10;;;11.30;99.90;;;;;;8359759;28;20025;-70
2021/03/03 10:43:53;;;;;;;23.52;12.60;;;11.40;99.90;;;;;;8361881;28;20020;-70
2021/03/03 10:47:54;;;;;;;23.60;12.98;;;11.60;99.90;;;;;;8378759;28;20025;-72
2021/03/03 10:51:54;;;;;;;21.02;12.93;;;11.70;99.90;;;;;;8387997;28;20360;-70
2021/03/03 10:55:55;;;;;;;20.75;11.88;;;11.90;99.90;;;;;;8362206;28;20021;-70
2021/03/03 11:00:05;;;;;;;24.85;11.95;;;12.00;99.90;;;;;;8384274;28;20028;-71
2021/03/03 11:04:05;;;;;;;22.40;12.60;;;12.10;99.90;;;;;;8368546;28;20031;-71
2021/03/03 11:08:06;;;;;;;23.70;13.55;;;11.80;99.40;;;;;;8385289;28;20123;-70
2021/03/03 11:12:08;;;;;;;27.88;13.05;;;11.90;98.10;;;;;;8364385;28;20021;-71
2021/03/03 11:16:08;;;;;;;27.83;14.50;;;11.70;97.90;;;;;;8389428;28;20016;-71
2021/03/03 11:20:09;;;;;;;25.90;13.95;;;11.60;99.20;;;;;;8387710;28;20087;-72
2021/03/03 11:24:11;;;;;;;29.30;14.23;;;11.70;98.70;;;;;;8391525;28;20028;-70
2021/03/03 11:28:12;;;;;;;29.02;13.98;;;11.90;99.60;;;;;;8372616;28;20020;-71
2021/03/03 11:32:12;;;;;;;30.33;14.68;;;12.00;99.70;;;;;;8361041;28;20111;-71
2021/03/03 11:36:14;;;;;;;24.58;13.52;;;12.00;99.10;;;;;;8377914;28;20021;-70
2021/03/03 11:40:15;;;;;;;23.30;13.27;;;11.90;97.50;;;;;;8382558;28;20435;-71
2021/03/03 11:44:15;;;;;;;22.15;13.07;;;11.80;98.70;;;;;;8379855;28;20028;-71
2021/03/03 11:48:16;;;;;;;24.63;13.82;;;11.70;98.40;;;;;;8379102;28;20033;-71
2021/03/03 11:52:16;;;;;;;26.65;13.80;;;11.70;98.30;;;;;;8365839;28;20032;-71
2021/03/03 11:56:17;;;;;;;22.92;12.57;;;11.90;98.00;;;;;;8357768;28;20052;-70
2021/03/03 12:00:18;;;;;;;20.30;12.10;;;12.10;97.60;;;;;;8360537;28;20108;-70
2021/03/03 12:04:19;;;;;;;21.13;12.25;;;12.40;96.20;;;;;;8379663;28;20040;-71
2021/03/03 12:08:19;;;;;;;22.42;12.85;;;12.40;95.90;;;;;;8364828;28;20078;-71
2021/03/03 12:12:20;;;;;;;20.83;12.55;;;12.50;95.70;;;;;;8388930;28;20064;-70
2021/03/03 12:16:20;;;;;;;23.73;12.48;;;12.80;95.00;;;;;;8376002;28;20020;-71
2021/03/03 12:20:23;;;;;;;22.27;11.15;;;12.80;93.90;;;;;;8395944;28;20382;-71
2021/03/03 12:24:25;;;;;;;18.75;10.50;;;12.90;93.10;;;;;;8374717;28;20048;-71
2021/03/03 12:28:26;;;;;;;19.00;11.30;;;12.50;92.80;;;;;;8396358;28;20501;-71
2021/03/03 12:32:26;;;;;;;18.30;9.93;;;12.40;92.60;;;;;;8395073;28;20048;-70
2021/03/03 12:36:27;;;;;;;19.67;11.00;;;12.40;92.90;;;;;;8393192;28;20017;-71
2021/03/03 12:40:27;;;;;;;19.75;9.07;;;12.80;92.20;;;;;;8373341;28;20024;-71
2021/03/03 12:44:28;;;;;;;23.50;11.45;;;12.90;91.30;;;;;;8385607;28;20029;-71
2021/03/03 12:48:29;;;;;;;19.65;10.35;;;13.00;90.90;;;;;;8384501;28;20021;-71
2021/03/03 12:52:29;;;;;;;22.58;10.77;;;12.90;90.80;;;;;;8386160;28;20028;-70
2021/03/03 12:56:30;;;;;;;19.85;11.93;;;12.90;90.40;;;;;;8394165;28;20034;-71
2021/03/03 13:00:31;;;;;;;19.70;11.38;;;13.00;90.90;;;;;;8393699;28;20021;-70
2021/03/03 13:04:31;;;;;;;18.38;11.60;;;13.30;90.90;;;;;;8388173;28;20024;-70
2021/03/03 13:08:32;;;;;;;18.83;11.50;;;13.10;89.30;;;;;;8371539;28;20036;-71
2021/03/03 13:12:33;;;;;;;20.40;11.75;;;13.10;90.80;;;;;;8370200;28;20401;-71
2021/03/03 13:16:34;;;;;;;22.48;12.35;;;13.40;90.10;;;;;;8377732;28;20216;-71
2021/03/03 13:20:34;;;;;;;22.73;11.45;;;13.70;90.10;;;;;;8385539;28;20095;-71
2021/03/03 13:24:35;;;;;;;21.35;11.05;;;13.90;85.60;;;;;;8381487;28;20036;-71
2021/03/03 13:28:36;;;;;;;21.00;11.13;;;13.50;86.80;;;;;;8362320;28;20113;-70
2021/03/03 13:32:36;;;;;;;26.30;12.30;;;13.20;87.90;;;;;;8390076;28;20043;-70
2021/03/03 13:36:37;;;;;;;20.00;11.35;;;13.10;89.60;;;;;;8384186;28;20033;-71
2021/03/03 13:40:39;;;;;;;19.58;12.27;;;13.20;88.80;;;;;;8383509;28;20041;-71
2021/03/03 13:44:40;;;;;;;19.17;11.63;;;13.10;88.30;;;;;;8381723;28;20490;-71
2021/03/03 13:48:40;;;;;;;21.85;12.63;;;13.30;88.00;;;;;;8386602;28;20093;-71
2021/03/03 13:52:41;;;;;;;20.25;11.80;;;13.50;88.80;;;;;;8384087;28;20171;-70
2021/03/03 13:56:43;;;;;;;22.20;13.25;;;13.70;86.10;;;;;;8384894;28;20023;-70
2021/03/03 14:00:43;;;;;;;21.67;11.75;;;13.70;85.50;;;;;;8389593;28;20032;-70
2021/03/03 14:04:44;;;;;;;22.90;12.27;;;13.50;84.70;;;;;;8367996;28;20119;-73
2021/03/03 14:08:45;;;;;;;24.52;13.07;;;13.40;86.40;;;;;;8387020;28;20029;-68
2021/03/03 14:12:45;;;;;;;23.52;12.63;;;13.60;86.60;;;;;;8364959;28;20031;-68
2021/03/03 14:16:46;;;;;;;20.25;12.15;;;13.50;86.60;;;;;;8367697;28;20075;-69
2021/03/03 14:20:47;;;;;;;24.83;13.00;;;13.40;87.00;;;;;;8381861;28;20032;-68
2021/03/03 14:24:47;;;;;;;25.55;13.75;;;13.30;89.10;;;;;;8381757;28;20486;-69
2021/03/03 14:28:48;;;;;;;28.50;14.45;;;13.40;89.90;;;;;;8360920;28;20031;-69
2021/03/03 14:32:48;;;;;;;23.25;13.82;;;13.30;90.10;;;;;;8375401;28;20021;-68
2021/03/03 14:36:49;;;;;;;25.77;14.23;;;13.20;90.20;;;;;;8370271;28;20084;-69
2021/03/03 14:40:51;;;;;;;23.88;14.23;;;13.00;90.70;;;;;;8381150;28;20039;-69
2021/03/03 14:44:52;;;;;;;29.40;14.45;;;13.00;90.50;;;;;;8390610;28;20024;-69
2021/03/03 14:48:53;;;;;;;26.25;13.75;;;12.90;90.40;;;;;;8386826;28;20555;-69
2021/03/03 14:52:54;;;;;;;23.88;13.30;;;12.90;90.90;;;;;;8372186;28;20586;-68
2021/03/03 14:56:54;;;;;;;24.95;14.02;;;12.80;91.20;;;;;;8367993;28;20021;-69
2021/03/03 15:00:55;;;;;;;32.97;16.00;;;12.60;92.10;;;;;;8357208;28;20020;-69
2021/03/03 15:04:55;;;;;;;28.38;15.02;;;12.40;92.50;;;;;;8377587;28;20104;-69
2021/03/03 15:08:56;;;;;;;26.05;15.10;;;12.30;93.80;;;;;;8384234;28;20090;-69
2021/03/03 15:12:56;;;;;;;28.52;15.25;;;12.10;94.50;;;;;;8375529;28;20052;-68
2021/03/03 15:16:57;;;;;;;31.00;14.85;;;12.00;95.10;;;;;;8380269;28;20324;-69
2021/03/03 15:20:57;;;;;;;24.60;15.32;;;12.00;95.10;;;;;;8376197;28;20037;-69
2021/03/03 15:24:58;;;;;;;584.33;175.02;;;11.90;96.40;;;;;;8352381;28;20494;-70
2021/03/03 15:28:58;;;;;;;44.80;23.25;;;11.90;96.70;;;;;;8366992;28;20111;-68
2021/03/03 15:32:59;;;;;;;35.22;21.35;;;11.80;96.00;;;;;;8377442;28;20028;-68
2021/03/03 15:37:00;;;;;;;36.92;21.23;;;11.60;97.00;;;;;;8379019;28;20043;-68
2021/03/03 15:41:00;;;;;;;28.70;17.70;;;11.60;96.80;;;;;;8361317;28;20116;-68
2021/03/03 15:45:01;;;;;;;35.38;18.13;;;11.50;97.00;;;;;;8365330;28;20029;-68
2021/03/03 15:49:01;;;;;;;39.80;17.17;;;11.30;97.70;;;;;;8378808;28;20082;-67
2021/03/03 15:53:02;;;;;;;35.60;18.27;;;11.10;98.20;;;;;;8403440;28;20016;-68
2021/03/03 15:57:03;;;;;;;34.60;17.05;;;10.90;99.30;;;;;;8383742;28;20031;-68
2021/03/03 16:01:04;;;;;;;32.53;16.35;;;11.00;99.90;;;;;;8375789;28;20508;-68
2021/03/03 16:05:05;;;;;;;31.27;16.13;;;10.70;99.90;;;;;;8376770;28;20020;-68
2021/03/03 16:09:06;;;;;;;34.35;17.17;;;10.50;99.90;;;;;;8390835;28;20052;-68
2021/03/03 16:13:06;;;;;;;29.85;16.83;;;10.40;99.90;;;;;;8366183;28;20037;-68
2021/03/03 16:17:07;;;;;;;32.45;17.42;;;10.20;99.90;;;;;;8372890;28;20024;-68
2021/03/03 16:21:07;;;;;;;31.05;17.35;;;10.20;99.90;;;;;;8388644;28;20029;-68
2021/03/03 16:25:10;;;;;;;33.22;17.77;;;10.20;99.90;;;;;;8388510;28;20024;-68
2021/03/03 16:29:10;;;;;;;36.85;19.80;;;10.00;99.90;;;;;;8385033;28;20032;-68
2021/03/03 16:33:11;;;;;;;32.30;17.42;;;9.70;99.90;;;;;;8385234;28;20467;-68
2021/03/03 16:37:11;;;;;;;33.50;16.60;;;9.60;99.90;;;;;;8388816;28;20518;-68
2021/03/03 16:41:12;;;;;;;32.60;16.48;;;9.20;99.90;;;;;;8384285;28;20260;-68
2021/03/03 16:45:14;;;;;;;30.08;15.35;;;9.00;99.90;;;;;;8384588;28;20074;-68
2021/03/03 16:49:14;;;;;;;32.58;15.20;;;8.70;99.90;;;;;;8394995;28;20031;-68
2021/03/03 16:53:15;;;;;;;31.70;15.85;;;8.50;99.90;;;;;;8419784;22;20407;-67
2021/03/03 16:57:16;;;;;;;30.80;15.77;;;8.30;99.90;;;;;;8419282;28;20747;-67
2021/03/03 17:01:17;;;;;;;31.27;14.68;;;8.20;99.90;;;;;;8424655;28;20303;-67
2021/03/03 17:05:18;;;;;;;29.73;15.77;;;8.20;99.90;;;;;;8406092;28;20032;-66
2021/03/03 17:09:19;;;;;;;30.33;15.77;;;8.20;99.90;;;;;;8405378;28;20028;-67
2021/03/03 17:13:20;;;;;;;39.55;15.07;;;8.00;99.90;;;;;;8401925;28;20062;-67
2021/03/03 17:17:21;;;;;;;33.10;15.18;;;7.70;99.90;;;;;;8393379;28;20070;-67
2021/03/03 17:21:22;;;;;;;36.83;15.88;;;7.80;99.90;;;;;;8389497;28;20029;-66
2021/03/03 17:25:22;;;;;;;41.90;15.35;;;7.50;99.90;;;;;;8370857;28;20028;-67
2021/03/03 17:29:23;;;;;;;30.63;16.35;;;7.30;99.90;;;;;;8388952;28;20021;-67
2021/03/03 17:33:24;;;;;;;38.15;16.10;;;7.20;99.90;;;;;;8390074;28;20028;-68
2021/03/03 17:37:24;;;;;;;52.65;19.27;;;7.10;99.90;;;;;;8375278;28;20024;-68
2021/03/03 17:41:25;;;;;;;38.35;15.05;;;7.10;99.90;;;;;;8391680;28;20029;-67
2021/03/03 17:45:25;;;;;;;26.75;14.48;;;7.30;99.90;;;;;;8384529;28;20383;-67
2021/03/03 17:49:26;;;;;;;36.40;14.98;;;7.50;99.90;;;;;;8383903;28;20168;-67
2021/03/03 17:53:27;;;;;;;36.28;15.77;;;7.20;99.90;;;;;;8391113;28;20047;-67
2021/03/03 17:57:27;;;;;;;32.13;15.70;;;6.90;99.90;;;;;;8387905;28;20060;-67
2021/03/03 18:01:28;;;;;;;30.40;14.98;;;6.70;99.90;;;;;;8381600;28;20272;-67
2021/03/03 18:05:28;;;;;;;42.50;19.95;;;6.60;99.90;;;;;;8391217;28;20382;-67
2021/03/03 18:09:29;;;;;;;41.28;18.02;;;6.50;99.90;;;;;;8374664;28;20036;-67
2021/03/03 18:13:29;;;;;;;42.65;19.48;;;6.30;99.90;;;;;;8375293;28;20032;-66
2021/03/03 18:17:30;;;;;;;69.20;26.33;;;6.10;99.90;;;;;;8371527;28;20024;-67
2021/03/03 18:21:31;;;;;;;90.97;34.70;;;5.90;99.90;;;;;;8379936;28;20030;-67
2021/03/03 18:25:32;;;;;;;76.82;35.08;;;5.80;99.90;;;;;;8386888;28;20529;-68
2021/03/03 18:29:32;;;;;;;60.08;29.83;;;5.90;99.90;;;;;;8384162;28;20401;-68
2021/03/03 18:33:33;;;;;;;61.00;29.00;;;5.80;99.90;;;;;;8368837;28;20028;-68
2021/03/03 18:37:34;;;;;;;50.83;25.55;;;5.70;99.90;;;;;;8384871;28;20025;-68
2021/03/03 18:41:35;;;;;;;50.22;25.02;;;5.60;99.90;;;;;;8385968;28;20096;-68
2021/03/03 18:45:37;;;;;;;53.95;24.25;;;5.70;99.90;;;;;;8359895;28;20021;-68
2021/03/03 18:49:38;;;;;;;62.47;24.88;;;5.60;99.90;;;;;;8375719;28;20040;-70
2021/03/03 18:53:39;;;;;;;57.03;24.95;;;5.60;99.90;;;;;;8372752;28;20598;-69
2021/03/03 18:57:41;;;;;;;62.05;23.67;;;5.40;99.90;;;;;;8353534;28;20108;-69
2021/03/03 19:01:41;;;;;;;53.00;24.45;;;5.30;99.90;;;;;;8359052;28;20032;-68
2021/03/03 19:05:42;;;;;;;65.43;24.55;;;5.20;99.90;;;;;;8385132;28;20039;-69
2021/03/03 19:09:42;;;;;;;55.13;25.67;;;4.90;99.90;;;;;;8383026;28;20029;-69
2021/03/03 19:13:43;;;;;;;44.78;23.70;;;4.90;99.90;;;;;;8376716;28;20032;-68
2021/03/03 19:17:44;;;;;;;52.95;23.40;;;4.80;99.90;;;;;;8363264;28;20516;-68
2021/03/03 19:21:44;;;;;;;53.22;23.75;;;4.70;99.90;;;;;;8368542;28;20100;-68
2021/03/03 19:25:45;;;;;;;47.33;22.15;;;4.70;99.90;;;;;;8354287;28;20688;-69
2021/03/03 19:29:46;;;;;;;40.78;19.95;;;4.80;99.90;;;;;;8355134;28;20032;-69
2021/03/03 19:33:47;;;;;;;38.10;18.30;;;4.90;99.90;;;;;;8377409;28;21734;-68
2021/03/03 19:37:49;;;;;;;35.58;17.30;;;5.00;99.90;;;;;;8358012;28;20063;-69
2021/03/03 19:41:51;;;;;;;37.47;17.55;;;4.70;99.90;;;;;;8356590;28;20049;-69
2021/03/03 19:45:51;;;;;;;40.38;20.02;;;4.50;99.90;;;;;;8355903;28;20412;-68
2021/03/03 19:49:52;;;;;;;41.95;21.77;;;4.60;99.90;;;;;;8354189;28;20093;-69
2021/03/03 19:53:52;;;;;;;55.10;24.90;;;4.70;99.90;;;;;;8355048;28;20017;-69
2021/03/03 19:57:53;;;;;;;49.22;25.52;;;4.60;99.90;;;;;;8381131;28;20103;-69
2021/03/03 20:01:54;;;;;;;50.72;25.13;;;4.60;99.90;;;;;;8383618;28;20032;-69
2021/03/03 20:05:54;;;;;;;45.08;24.25;;;4.50;99.90;;;;;;8384952;28;20022;-69
2021/03/03 20:09:55;;;;;;;47.92;24.92;;;4.40;99.90;;;;;;8384756;28;20491;-69
2021/03/03 20:13:56;;;;;;;50.95;25.55;;;4.30;99.90;;;;;;8366268;28;20047;-69
2021/03/03 20:17:57;;;;;;;53.28;24.67;;;4.20;99.90;;;;;;8384753;28;20025;-69
2021/03/03 20:21:57;;;;;;;46.42;23.77;;;4.20;99.90;;;;;;8381995;28;20520;-70
2021/03/03 20:25:58;;;;;;;52.45;24.45;;;4.20;99.90;;;;;;8384518;28;20383;-69
2021/03/03 20:29:58;;;;;;;42.25;21.73;;;4.20;99.90;;;;;;8384649;28;20521;-67